Time;durP1;ratioP1;P1;durP2;ratioP2;P2;SDS_P1;SDS_P2;PMS_P1;PMS_P2;Temp;Humidity;BMP_temperature;BMP_pressure;BME280_temperature;BME280_humidity;BME280_pressure;Samples;Min_cycle;Max_cycle;Signal;HPM_P1;HPM_P2
2021/12/31 00:01:07;;;;;;;14.75;4.20;;;;;;;;;;5147761;27;20070;-56
2021/12/31 00:03:33;;;;;;;23.67;3.83;;;;;;;;;;5147776;27;20075;-57
2021/12/31 00:05:59;;;;;;;16.48;3.22;;;;;;;;;;5128743;27;20336;-57
2021/12/31 00:08:25;;;;;;;16.25;3.17;;;;;;;;;;5147653;27;20526;-57
2021/12/31 00:10:56;;;;;;;18.08;4.03;;;;;;;;;;5147118;27;20047;-58
2021/12/31 00:13:23;;;;;;;20.73;4.88;;;;;;;;;;5147736;27;20099;-57
2021/12/31 00:15:49;;;;;;;20.30;3.88;;;;;;;;;;5147267;27;20123;-57
2021/12/31 00:18:15;;;;;;;17.23;3.65;;;;;;;;;;5147413;27;20129;-57
2021/12/31 00:20:41;;;;;;;11.60;2.78;;;;;;;;;;5146603;27;20098;-57
2021/12/31 00:23:09;;;;;;;19.25;3.40;;;;;;;;;;5147355;27;20057;-57
2021/12/31 00:25:37;;;;;;;17.27;3.53;;;;;;;;;;5147003;27;20062;-58
2021/12/31 00:28:04;;;;;;;18.42;4.63;;;;;;;;;;5147394;27;20035;-58
2021/12/31 00:30:30;;;;;;;19.40;3.25;;;;;;;;;;5147131;27;20108;-57
2021/12/31 00:32:56;;;;;;;15.70;3.55;;;;;;;;;;5147204;27;20039;-57
2021/12/31 00:35:22;;;;;;;19.50;4.38;;;;;;;;;;5145890;27;20066;-57
2021/12/31 00:37:48;;;;;;;19.48;3.58;;;;;;;;;;5147013;27;20035;-57
2021/12/31 00:40:15;;;;;;;18.10;4.38;;;;;;;;;;5146817;27;20055;-57
2021/12/31 00:42:42;;;;;;;18.40;3.15;;;;;;;;;;5128694;27;20108;-57
2021/12/31 00:45:09;;;;;;;15.18;3.42;;;;;;;;;;5146696;27;20043;-57
2021/12/31 00:47:35;;;;;;;21.23;3.88;;;;;;;;;;5147004;27;20078;-57
2021/12/31 00:50:02;;;;;;;14.48;3.63;;;;;;;;;;5146327;27;20105;-56
2021/12/31 00:52:28;;;;;;;22.77;4.95;;;;;;;;;;5146875;27;20050;-57
2021/12/31 00:54:54;;;;;;;29.17;4.32;;;;;;;;;;5146684;27;20091;-57
2021/12/31 00:57:20;;;;;;;24.70;4.10;;;;;;;;;;5146336;27;20042;-58
2021/12/31 00:59:46;;;;;;;15.95;3.70;;;;;;;;;;5146598;27;20062;-58
2021/12/31 01:02:13;;;;;;;20.17;3.63;;;;;;;;;;5146486;27;20043;-58
2021/12/31 01:04:39;;;;;;;20.63;4.45;;;;;;;;;;5146683;27;20043;-58
2021/12/31 01:07:06;;;;;;;23.80;4.10;;;;;;;;;;5145867;27;20060;-58
2021/12/31 01:09:32;;;;;;;20.10;4.22;;;;;;;;;;5146354;27;20406;-56
2021/12/31 01:12:00;;;;;;;23.83;4.60;;;;;;;;;;5145948;27;20137;-57
2021/12/31 01:14:32;;;;;;;25.95;5.68;;;;;;;;;;5146473;27;20561;-58
2021/12/31 01:17:02;;;;;;;23.95;4.30;;;;;;;;;;5146237;27;20043;-59
2021/12/31 01:19:45;;;;;;;19.15;4.28;;;;;;;;;;5146356;27;20051;-57
2021/12/31 01:22:12;;;;;;;19.85;3.75;;;;;;;;;;5145824;27;20047;-57
2021/12/31 01:24:38;;;;;;;19.77;3.60;;;;;;;;;;5110694;27;20043;-57
2021/12/31 01:27:05;;;;;;;19.50;3.90;;;;;;;;;;5145674;27;20505;-57
2021/12/31 01:29:31;;;;;;;19.13;3.80;;;;;;;;;;5146070;27;20461;-57
2021/12/31 01:31:57;;;;;;;24.92;4.78;;;;;;;;;;5146108;27;20099;-57
2021/12/31 01:34:24;;;;;;;16.25;4.10;;;;;;;;;;5127730;27;20080;-58
2021/12/31 01:36:51;;;;;;;20.40;4.03;;;;;;;;;;5145508;27;20043;-57
2021/12/31 01:39:17;;;;;;;18.20;3.25;;;;;;;;;;5145950;27;20053;-57
2021/12/31 01:41:43;;;;;;;21.08;3.42;;;;;;;;;;5145549;27;20589;-57
2021/12/31 01:44:09;;;;;;;14.95;3.60;;;;;;;;;;5145798;27;20097;-58
2021/12/31 01:46:39;;;;;;;21.52;4.75;;;;;;;;;;5145222;27;20259;-57
2021/12/31 01:49:18;;;;;;;16.63;3.25;;;;;;;;;;5145834;27;20443;-57
2021/12/31 01:51:44;;;;;;;23.30;5.70;;;;;;;;;;5145056;27;20082;-57
2021/12/31 01:54:10;;;;;;;17.98;3.67;;;;;;;;;;5145848;27;20070;-57
2021/12/31 01:56:37;;;;;;;20.60;4.15;;;;;;;;;;5145368;27;20043;-57
2021/12/31 01:59:05;;;;;;;21.75;4.38;;;;;;;;;;5145854;27;20066;-56
2021/12/31 02:01:31;;;;;;;13.60;3.70;;;;;;;;;;5145606;28;20126;-57
2021/12/31 02:03:59;;;;;;;14.38;3.88;;;;;;;;;;5145642;28;20045;-57
2021/12/31 02:06:26;;;;;;;17.20;3.47;;;;;;;;;;5145063;28;20074;-57
2021/12/31 02:08:52;;;;;;;9.40;3.33;;;;;;;;;;5145659;28;20043;-56
2021/12/31 02:11:20;;;;;;;13.38;3.20;;;;;;;;;;5145193;28;20142;-58
2021/12/31 02:13:47;;;;;;;15.18;3.63;;;;;;;;;;5145757;28;20047;-57
2021/12/31 02:16:13;;;;;;;18.42;4.93;;;;;;;;;;5145377;28;20038;-57
2021/12/31 02:18:42;;;;;;;12.75;3.88;;;;;;;;;;5145704;28;20130;-57
2021/12/31 02:21:10;;;;;;;14.55;3.08;;;;;;;;;;5144799;28;20056;-57
2021/12/31 02:23:43;;;;;;;;;;;;;;;;;;5145942;28;20043;-57
2021/12/31 02:26:10;;;;;;;17.05;3.40;;;;;;;;;;5145162;28;20352;-57
2021/12/31 02:28:36;;;;;;;9.32;2.83;;;;;;;;;;5145401;28;20047;-57
2021/12/31 02:31:03;;;;;;;20.00;3.78;;;;;;;;;;5145104;28;20082;-58
2021/12/31 02:33:33;;;;;;;14.93;3.80;;;;;;;;;;5145077;28;20039;-57
2021/12/31 02:36:00;;;;;;;20.00;3.20;;;;;;;;;;5144492;28;20047;-57
2021/12/31 02:38:27;;;;;;;26.23;4.33;;;;;;;;;;5145226;28;20035;-58
2021/12/31 02:40:53;;;;;;;25.02;2.95;;;;;;;;;;5144976;28;20043;-58
2021/12/31 02:43:19;;;;;;;16.67;4.35;;;;;;;;;;5145116;28;20064;-57
2021/12/31 02:45:45;;;;;;;23.58;5.18;;;;;;;;;;5145247;28;20043;-57
2021/12/31 02:48:12;;;;;;;22.30;4.50;;;;;;;;;;5126580;28;20410;-56
2021/12/31 02:50:40;;;;;;;13.63;3.65;;;;;;;;;;5144439;28;20054;-57
2021/12/31 02:53:11;;;;;;;15.88;3.85;;;;;;;;;;5145485;28;20055;-57
2021/12/31 02:55:37;;;;;;;13.98;3.38;;;;;;;;;;5144786;28;20085;-57
2021/12/31 02:58:05;;;;;;;13.77;2.80;;;;;;;;;;5146360;27;20039;-57
2021/12/31 03:00:32;;;;;;;15.18;3.45;;;;;;;;;;5148881;27;20051;-57
2021/12/31 03:03:00;;;;;;;17.00;3.90;;;;;;;;;;5148945;27;20051;-57
2021/12/31 03:05:27;;;;;;;11.00;3.03;;;;;;;;;;5148516;27;20059;-57
2021/12/31 03:07:54;;;;;;;15.25;3.08;;;;;;;;;;5148819;27;20047;-57
2021/12/31 03:10:20;;;;;;;13.53;3.03;;;;;;;;;;5148147;27;20047;-57
2021/12/31 03:12:47;;;;;;;9.30;3.20;;;;;;;;;;5148795;27;20803;-57
2021/12/31 03:15:14;;;;;;;10.40;2.95;;;;;;;;;;5142228;27;20537;-57
2021/12/31 03:17:42;;;;;;;12.05;3.25;;;;;;;;;;5128221;28;20071;-58
2021/12/31 03:20:11;;;;;;;12.00;3.15;;;;;;;;;;5127490;28;20043;-57
2021/12/31 03:22:38;;;;;;;15.32;3.97;;;;;;;;;;5127791;28;20040;-57
2021/12/31 03:25:04;;;;;;;23.65;3.38;;;;;;;;;;5127893;28;20039;-57
2021/12/31 03:27:30;;;;;;;12.13;3.15;;;;;;;;;;5109539;28;20073;-58
2021/12/31 03:29:56;;;;;;;15.75;4.38;;;;;;;;;;5127553;28;20044;-58
2021/12/31 03:32:22;;;;;;;16.40;3.25;;;;;;;;;;5127896;28;20051;-58
2021/12/31 03:34:48;;;;;;;12.32;3.38;;;;;;;;;;5127726;28;20142;-58
2021/12/31 03:37:14;;;;;;;15.88;3.40;;;;;;;;;;5134057;27;20047;-58
2021/12/31 03:39:40;;;;;;;10.85;2.90;;;;;;;;;;5148361;27;20099;-58
2021/12/31 03:42:07;;;;;;;13.70;3.10;;;;;;;;;;5147782;27;20051;-58
2021/12/31 03:44:33;;;;;;;17.13;3.45;;;;;;;;;;5148432;27;20046;-58
2021/12/31 03:46:59;;;;;;;10.93;2.55;;;;;;;;;;5147964;27;20053;-58
2021/12/31 03:49:26;;;;;;;8.23;2.90;;;;;;;;;;5129604;27;20074;-58
2021/12/31 03:51:52;;;;;;;11.07;2.60;;;;;;;;;;5147438;27;20043;-58
2021/12/31 03:54:19;;;;;;;7.32;2.55;;;;;;;;;;5147909;27;20085;-58
2021/12/31 03:56:47;;;;;;;9.35;3.45;;;;;;;;;;5147808;27;20081;-58
2021/12/31 03:59:13;;;;;;;14.80;3.25;;;;;;;;;;5147856;27;20055;-58
2021/12/31 04:01:40;;;;;;;13.18;3.75;;;;;;;;;;5147710;27;20075;-57
2021/12/31 04:04:08;;;;;;;17.00;3.50;;;;;;;;;;5147836;27;20076;-57
2021/12/31 04:06:34;;;;;;;11.68;3.00;;;;;;;;;;5147269;27;20283;-58
2021/12/31 04:09:00;;;;;;;13.85;3.13;;;;;;;;;;5147255;27;20430;-58
2021/12/31 04:11:27;;;;;;;8.68;3.15;;;;;;;;;;5128479;27;20114;-58
2021/12/31 04:13:53;;;;;;;12.90;2.95;;;;;;;;;;5147494;27;20036;-58
2021/12/31 04:16:19;;;;;;;12.40;2.88;;;;;;;;;;5129117;27;20058;-57
2021/12/31 04:18:45;;;;;;;10.65;3.00;;;;;;;;;;5129210;27;20050;-57
2021/12/31 04:21:15;;;;;;;11.73;2.72;;;;;;;;;;5146617;27;20047;-58
2021/12/31 04:23:51;;;;;;;10.95;2.20;;;;;;;;;;5129283;27;20536;-58
2021/12/31 04:26:17;;;;;;;11.18;2.20;;;;;;;;;;5146822;27;20039;-58
2021/12/31 04:28:44;;;;;;;9.50;1.92;;;;;;;;;;5147211;27;20538;-58
2021/12/31 04:31:10;;;;;;;9.73;2.58;;;;;;;;;;5147165;27;20051;-58
2021/12/31 04:33:36;;;;;;;6.45;2.38;;;;;;;;;;5147150;27;20108;-59
2021/12/31 04:36:02;;;;;;;10.55;3.05;;;;;;;;;;5146895;27;20051;-58
2021/12/31 04:38:29;;;;;;;9.40;3.08;;;;;;;;;;5147126;27;20043;-57
2021/12/31 04:40:55;;;;;;;10.35;2.80;;;;;;;;;;5128261;27;20462;-58
2021/12/31 04:43:21;;;;;;;13.65;2.83;;;;;;;;;;5146934;27;20100;-58
2021/12/31 04:45:47;;;;;;;8.88;2.70;;;;;;;;;;5147069;27;20452;-58
2021/12/31 04:48:13;;;;;;;7.13;2.40;;;;;;;;;;5146957;27;20038;-58
2021/12/31 04:50:39;;;;;;;7.85;2.72;;;;;;;;;;5146323;27;20228;-58
2021/12/31 04:53:06;;;;;;;11.38;2.50;;;;;;;;;;5146754;27;20043;-57
2021/12/31 04:55:32;;;;;;;14.02;2.55;;;;;;;;;;5146472;27;20103;-58
2021/12/31 04:57:59;;;;;;;10.20;3.00;;;;;;;;;;5146707;27;20043;-58
2021/12/31 05:00:25;;;;;;;8.80;2.75;;;;;;;;;;5146640;27;20072;-58
2021/12/31 05:02:51;;;;;;;10.90;2.40;;;;;;;;;;5128471;27;20122;-56
2021/12/31 05:05:17;;;;;;;11.60;3.67;;;;;;;;;;5146130;27;20047;-57
2021/12/31 05:07:43;;;;;;;7.72;2.42;;;;;;;;;;5146500;27;20126;-57
2021/12/31 05:10:10;;;;;;;12.07;4.13;;;;;;;;;;5127701;27;20115;-59
2021/12/31 05:12:38;;;;;;;5.97;2.30;;;;;;;;;;5136957;27;20047;-58
2021/12/31 05:15:07;;;;;;;8.15;1.90;;;;;;;;;;5146604;27;20046;-57
2021/12/31 05:17:34;;;;;;;9.30;2.53;;;;;;;;;;5146152;27;20128;-58
2021/12/31 05:20:00;;;;;;;8.05;2.42;;;;;;;;;;5145941;27;20100;-58
2021/12/31 05:22:26;;;;;;;12.68;2.50;;;;;;;;;;5146007;27;20068;-58
2021/12/31 05:24:53;;;;;;;4.35;2.08;;;;;;;;;;5146172;27;20114;-58
2021/12/31 05:27:19;;;;;;;5.78;2.20;;;;;;;;;;5146066;27;20098;-58
2021/12/31 05:29:45;;;;;;;10.95;2.63;;;;;;;;;;5127929;27;20498;-58
2021/12/31 05:32:11;;;;;;;8.40;2.22;;;;;;;;;;5145791;27;20035;-58
2021/12/31 05:34:37;;;;;;;7.28;2.75;;;;;;;;;;5145967;27;20126;-59
2021/12/31 05:37:03;;;;;;;5.57;2.40;;;;;;;;;;5145535;27;20039;-58
2021/12/31 05:39:29;;;;;;;3.47;1.58;;;;;;;;;;5146060;27;20154;-58
2021/12/31 05:41:56;;;;;;;6.13;2.20;;;;;;;;;;5145840;27;20079;-58
2021/12/31 05:44:22;;;;;;;8.45;2.80;;;;;;;;;;5145875;27;20069;-58
2021/12/31 05:46:50;;;;;;;7.05;2.88;;;;;;;;;;5145979;27;20139;-58
2021/12/31 05:49:16;;;;;;;;;;;;;;;;;;5146490;27;20043;-58
2021/12/31 05:51:42;;;;;;;7.15;2.30;;;;;;;;;;5145138;27;19919;-58
2021/12/31 05:54:08;;;;;;;6.07;3.08;;;;;;;;;;5145993;27;20498;-58
2021/12/31 05:56:35;;;;;;;7.80;2.03;;;;;;;;;;5145374;27;20054;-58
2021/12/31 05:59:01;;;;;;;4.93;2.42;;;;;;;;;;5145815;27;20043;-58
2021/12/31 06:01:27;;;;;;;8.63;3.05;;;;;;;;;;5145580;27;20081;-58
2021/12/31 06:03:53;;;;;;;7.10;2.13;;;;;;;;;;5145759;28;20035;-58
2021/12/31 06:06:19;;;;;;;4.38;2.47;;;;;;;;;;5126769;28;20043;-58
2021/12/31 06:08:45;;;;;;;6.18;2.38;;;;;;;;;;5145766;28;20102;-58
2021/12/31 06:11:11;;;;;;;7.47;2.28;;;;;;;;;;5126833;28;20043;-58
2021/12/31 06:13:38;;;;;;;6.80;2.40;;;;;;;;;;5145477;28;20073;-58
2021/12/31 06:16:05;;;;;;;6.15;2.35;;;;;;;;;;5145434;28;20051;-58
2021/12/31 06:18:31;;;;;;;4.00;2.00;;;;;;;;;;5145873;28;20058;-58
2021/12/31 06:20:57;;;;;;;7.40;2.50;;;;;;;;;;5144786;28;20039;-58
2021/12/31 06:23:24;;;;;;;7.50;2.00;;;;;;;;;;5145359;28;20065;-57
2021/12/31 06:25:50;;;;;;;6.70;2.10;;;;;;;;;;5145061;28;20623;-58
2021/12/31 06:28:16;;;;;;;6.65;2.00;;;;;;;;;;5145526;28;20054;-58
2021/12/31 06:30:42;;;;;;;10.77;2.53;;;;;;;;;;5145478;28;20072;-57
2021/12/31 06:33:08;;;;;;;4.10;2.53;;;;;;;;;;5146852;27;20490;-58
2021/12/31 06:35:34;;;;;;;5.20;1.70;;;;;;;;;;5148937;27;20047;-58
2021/12/31 06:38:02;;;;;;;4.22;1.98;;;;;;;;;;5149551;27;20078;-58
2021/12/31 06:40:31;;;;;;;4.80;1.75;;;;;;;;;;5149201;27;20079;-57
2021/12/31 06:42:57;;;;;;;6.50;2.58;;;;;;;;;;5149105;27;20070;-58
2021/12/31 06:45:23;;;;;;;5.47;3.13;;;;;;;;;;5149435;27;20043;-58
2021/12/31 06:47:49;;;;;;;11.32;2.72;;;;;;;;;;5130598;27;20074;-58
2021/12/31 06:50:15;;;;;;;8.77;3.17;;;;;;;;;;5148303;27;20068;-58
2021/12/31 06:52:43;;;;;;;6.15;1.90;;;;;;;;;;5149162;27;20035;-58
2021/12/31 06:55:09;;;;;;;8.02;2.80;;;;;;;;;;5149096;27;20132;-58
2021/12/31 06:57:36;;;;;;;7.03;2.20;;;;;;;;;;5148990;27;20192;-58
2021/12/31 07:00:06;;;;;;;6.65;2.10;;;;;;;;;;5148705;27;20047;-57
2021/12/31 07:02:32;;;;;;;6.32;1.83;;;;;;;;;;5149002;27;20043;-58
2021/12/31 07:04:58;;;;;;;6.32;2.25;;;;;;;;;;5148954;27;20047;-58
2021/12/31 07:07:24;;;;;;;9.65;2.40;;;;;;;;;;5148488;27;20047;-58
2021/12/31 07:09:50;;;;;;;7.03;2.22;;;;;;;;;;5148961;27;20050;-58
2021/12/31 07:12:17;;;;;;;7.35;2.50;;;;;;;;;;5148180;27;20054;-58
2021/12/31 07:14:43;;;;;;;7.25;2.03;;;;;;;;;;5148565;27;20142;-58
2021/12/31 07:17:10;;;;;;;7.63;2.30;;;;;;;;;;5148769;27;20049;-58
2021/12/31 07:19:36;;;;;;;5.70;2.10;;;;;;;;;;5148709;27;20151;-57
2021/12/31 07:22:02;;;;;;;6.13;2.10;;;;;;;;;;5148058;27;20276;-58
2021/12/31 07:24:29;;;;;;;3.95;2.08;;;;;;;;;;5130141;27;20055;-58
2021/12/31 07:26:55;;;;;;;8.60;2.17;;;;;;;;;;5147998;27;20039;-58
2021/12/31 07:29:21;;;;;;;5.95;2.08;;;;;;;;;;5130054;27;20096;-58
2021/12/31 07:31:47;;;;;;;6.63;2.25;;;;;;;;;;5148206;27;20043;-57
2021/12/31 07:34:13;;;;;;;5.80;2.40;;;;;;;;;;5148236;27;20135;-59
2021/12/31 07:36:39;;;;;;;6.75;2.00;;;;;;;;;;5147567;27;20122;-58
2021/12/31 07:39:07;;;;;;;5.95;2.00;;;;;;;;;;5148183;27;20040;-57
2021/12/31 07:41:34;;;;;;;3.38;1.83;;;;;;;;;;5147744;27;20081;-57
2021/12/31 07:44:00;;;;;;;4.88;2.28;;;;;;;;;;5147226;27;20035;-58
2021/12/31 07:46:26;;;;;;;5.35;1.90;;;;;;;;;;5147185;27;20039;-58
2021/12/31 07:48:53;;;;;;;6.60;2.30;;;;;;;;;;5148116;27;20095;-57
2021/12/31 07:51:19;;;;;;;8.52;1.85;;;;;;;;;;5147181;27;20050;-58
2021/12/31 07:53:45;;;;;;;2.88;1.63;;;;;;;;;;5147879;27;20043;-57
2021/12/31 07:56:11;;;;;;;4.78;1.90;;;;;;;;;;5129113;27;20043;-57
2021/12/31 07:58:37;;;;;;;4.60;2.22;;;;;;;;;;5129328;27;20047;-58
2021/12/31 08:01:03;;;;;;;4.45;2.10;;;;;;;;;;5147909;27;20043;-57
2021/12/31 08:03:31;;;;;;;6.22;2.33;;;;;;;;;;5147794;27;20077;-57
2021/12/31 08:05:57;;;;;;;5.07;2.00;;;;;;;;;;5146906;27;20491;-57
2021/12/31 08:08:23;;;;;;;6.30;2.35;;;;;;;;;;5147440;27;20110;-57
2021/12/31 08:10:49;;;;;;;4.57;2.17;;;;;;;;;;5146881;27;20220;-58
2021/12/31 08:13:15;;;;;;;6.35;2.63;;;;;;;;;;5147173;27;20055;-58
2021/12/31 08:15:43;;;;;;;5.25;1.73;;;;;;;;;;5147640;27;20050;-57
2021/12/31 08:18:10;;;;;;;5.68;2.58;;;;;;;;;;5147431;27;20047;-57
2021/12/31 08:20:37;;;;;;;7.07;2.00;;;;;;;;;;5146751;27;20495;-58
2021/12/31 08:23:10;;;;;;;7.57;2.78;;;;;;;;;;5129087;27;20121;-58
2021/12/31 08:25:36;;;;;;;9.20;2.30;;;;;;;;;;5147148;27;20075;-58
2021/12/31 08:28:03;;;;;;;7.43;2.20;;;;;;;;;;5147298;27;20483;-58
2021/12/31 08:30:29;;;;;;;2.25;1.60;;;;;;;;;;5147037;27;20047;-58
2021/12/31 08:32:55;;;;;;;5.88;2.25;;;;;;;;;;5128689;27;20069;-57
2021/12/31 08:35:21;;;;;;;5.72;2.15;;;;;;;;;;5146521;27;20047;-58
2021/12/31 08:37:47;;;;;;;7.70;3.03;;;;;;;;;;5146996;27;20039;-57
2021/12/31 08:40:13;;;;;;;4.90;1.80;;;;;;;;;;5147072;27;20047;-57
2021/12/31 08:42:40;;;;;;;5.63;2.60;;;;;;;;;;5146783;27;20401;-57
2021/12/31 08:45:06;;;;;;;4.50;2.67;;;;;;;;;;5128458;27;20055;-58
2021/12/31 08:47:32;;;;;;;5.18;2.53;;;;;;;;;;5128721;27;20047;-57
2021/12/31 08:49:58;;;;;;;6.72;2.05;;;;;;;;;;5146483;27;20098;-59
2021/12/31 08:52:24;;;;;;;5.47;2.10;;;;;;;;;;5146538;27;20047;-58
2021/12/31 08:54:51;;;;;;;7.80;2.38;;;;;;;;;;5128411;27;20110;-58
2021/12/31 08:57:18;;;;;;;5.03;2.08;;;;;;;;;;5146086;27;20783;-58
2021/12/31 08:59:44;;;;;;;4.88;2.20;;;;;;;;;;5146700;27;20043;-58
2021/12/31 09:02:10;;;;;;;7.32;2.33;;;;;;;;;;5146539;27;20096;-58
2021/12/31 09:04:37;;;;;;;7.00;2.47;;;;;;;;;;5146535;27;20043;-58
2021/12/31 09:07:03;;;;;;;4.50;2.40;;;;;;;;;;5146300;27;20050;-58
2021/12/31 09:09:29;;;;;;;4.78;2.45;;;;;;;;;;5128081;27;20095;-58
2021/12/31 09:11:56;;;;;;;8.63;2.53;;;;;;;;;;5146054;27;20130;-57
2021/12/31 09:14:22;;;;;;;5.30;2.80;;;;;;;;;;5146350;27;20128;-57
2021/12/31 09:16:48;;;;;;;4.18;2.45;;;;;;;;;;5146289;27;20289;-58
2021/12/31 09:19:15;;;;;;;7.38;2.47;;;;;;;;;;5146187;27;20121;-57
2021/12/31 09:21:41;;;;;;;7.53;2.42;;;;;;;;;;5145388;27;20039;-58
2021/12/31 09:24:07;;;;;;;6.18;2.45;;;;;;;;;;5146152;27;20042;-58
2021/12/31 09:26:33;;;;;;;7.47;2.50;;;;;;;;;;5145789;27;20051;-58
2021/12/31 09:29:00;;;;;;;7.20;2.45;;;;;;;;;;5146278;27;20080;-59
2021/12/31 09:31:26;;;;;;;5.47;2.10;;;;;;;;;;5145942;27;20051;-59
2021/12/31 09:33:52;;;;;;;9.90;3.15;;;;;;;;;;5145974;27;20465;-58
2021/12/31 09:36:18;;;;;;;6.03;2.22;;;;;;;;;;5145475;27;20070;-59
2021/12/31 09:38:44;;;;;;;6.68;2.67;;;;;;;;;;5127609;27;20089;-59
2021/12/31 09:41:10;;;;;;;4.00;2.40;;;;;;;;;;5145418;27;20055;-57
2021/12/31 09:43:38;;;;;;;9.30;2.90;;;;;;;;;;5146064;27;20054;-59
2021/12/31 09:46:04;;;;;;;7.50;2.80;;;;;;;;;;5145781;27;20152;-58
2021/12/31 09:48:31;;;;;;;5.03;2.45;;;;;;;;;;5145778;27;20045;-58
2021/12/31 09:50:58;;;;;;;6.30;2.67;;;;;;;;;;5144841;27;20063;-57
2021/12/31 09:53:26;;;;;;;6.93;2.17;;;;;;;;;;5145707;27;20035;-57
2021/12/31 09:55:54;;;;;;;7.70;2.88;;;;;;;;;;5145606;27;20054;-58
2021/12/31 09:58:20;;;;;;;;;;;;;;;;;;5146217;27;20054;-57
2021/12/31 10:00:47;;;;;;;7.82;2.67;;;;;;;;;;5145549;27;19923;-57
2021/12/31 10:03:16;;;;;;;9.85;3.45;;;;;;;;;;5145522;27;20043;-58
2021/12/31 10:05:44;;;;;;;8.35;3.35;;;;;;;;;;5145094;28;20047;-58
2021/12/31 10:08:23;;;;;;;9.70;2.85;;;;;;;;;;5144986;27;20039;-57
2021/12/31 10:11:09;;;;;;;9.05;3.10;;;;;;;;;;5145517;28;20088;-56
2021/12/31 10:13:36;;;;;;;7.95;3.55;;;;;;;;;;5145273;28;20066;-58
2021/12/31 10:16:02;;;;;;;9.93;4.50;;;;;;;;;;5145332;28;20102;-57
2021/12/31 10:18:29;;;;;;;12.32;4.38;;;;;;;;;;5145577;28;20074;-57
2021/12/31 10:20:55;;;;;;;17.58;6.45;;;;;;;;;;5144881;28;20082;-57
2021/12/31 10:23:21;;;;;;;14.57;5.65;;;;;;;;;;5145525;28;20099;-57
2021/12/31 10:25:48;;;;;;;9.20;4.85;;;;;;;;;;5126717;28;20053;-59
2021/12/31 10:28:15;;;;;;;19.75;8.00;;;;;;;;;;5145483;28;20046;-57
2021/12/31 10:30:42;;;;;;;14.90;7.43;;;;;;;;;;5145285;28;20047;-57
2021/12/31 10:33:08;;;;;;;13.93;7.22;;;;;;;;;;5145355;28;20482;-57
2021/12/31 10:35:45;;;;;;;18.92;6.75;;;;;;;;;;5144941;28;20497;-58
2021/12/31 10:38:14;;;;;;;9.27;5.28;;;;;;;;;;5145635;28;20092;-58
2021/12/31 10:40:40;;;;;;;15.23;5.68;;;;;;;;;;5145237;28;20054;-58
2021/12/31 10:43:10;;;;;;;14.52;4.72;;;;;;;;;;5145007;28;20126;-57
2021/12/31 10:45:36;;;;;;;11.77;4.38;;;;;;;;;;5145205;28;20047;-57
2021/12/31 10:48:10;;;;;;;11.48;4.05;;;;;;;;;;5145271;28;20081;-57
2021/12/31 10:50:37;;;;;;;9.88;4.38;;;;;;;;;;5144433;28;20046;-57
2021/12/31 10:53:11;;;;;;;16.08;4.13;;;;;;;;;;5145528;28;20043;-57
2021/12/31 10:55:44;;;;;;;10.88;3.63;;;;;;;;;;5144851;28;20047;-57
2021/12/31 10:58:11;;;;;;;12.43;4.45;;;;;;;;;;5144943;28;20046;-58
2021/12/31 11:00:39;;;;;;;9.00;4.00;;;;;;;;;;5126641;28;20549;-58
2021/12/31 11:03:05;;;;;;;;;;;;;;;;;;5145628;28;20035;-58
2021/12/31 11:05:31;;;;;;;9.18;3.85;;;;;;;;;;5144536;28;19930;-58
2021/12/31 11:08:02;;;;;;;8.95;3.50;;;;;;;;;;5126780;28;20092;-57
2021/12/31 11:10:38;;;;;;;13.07;3.78;;;;;;;;;;5144848;28;20092;-57
2021/12/31 11:13:09;;;;;;;13.68;3.60;;;;;;;;;;5144488;28;20058;-57
2021/12/31 11:15:35;;;;;;;10.70;4.53;;;;;;;;;;5145000;28;20103;-57
2021/12/31 11:18:02;;;;;;;15.25;4.55;;;;;;;;;;5144971;28;20046;-58
2021/12/31 11:20:28;;;;;;;9.05;4.25;;;;;;;;;;5147466;27;20039;-58
2021/12/31 11:22:54;;;;;;;13.85;5.00;;;;;;;;;;5148711;27;20039;-58
2021/12/31 11:25:30;;;;;;;17.92;5.30;;;;;;;;;;5148444;27;20035;-57
2021/12/31 11:27:57;;;;;;;12.77;5.47;;;;;;;;;;5130039;27;20204;-57
2021/12/31 11:30:39;;;;;;;14.50;5.30;;;;;;;;;;5147900;27;20043;-57
2021/12/31 11:33:09;;;;;;;15.32;6.68;;;;;;;;;;5148219;27;20071;-57
2021/12/31 11:35:46;;;;;;;9.70;5.05;;;;;;;;;;5147849;27;20060;-57
2021/12/31 11:38:21;;;;;;;16.50;6.03;;;;;;;;;;5148507;27;20061;-58
2021/12/31 11:40:52;;;;;;;15.73;6.13;;;;;;;;;;5148021;27;20140;-57
2021/12/31 11:43:25;;;;;;;14.13;5.60;;;;;;;;;;5148120;27;20103;-58
2021/12/31 11:46:12;;;;;;;9.10;5.03;;;;;;;;;;5147930;27;20050;-58
2021/12/31 11:51:11;;;;;;;10.70;5.53;;;;;;;;;;5147240;27;20043;-57
2021/12/31 11:53:56;;;;;;;14.67;7.13;;;;;;;;;;5148366;27;20103;-57
2021/12/31 11:56:37;;;;;;;11.18;5.63;;;;;;;;;;5147888;27;20130;-57
2021/12/31 11:59:09;;;;;;;8.23;5.03;;;;;;;;;;5147842;27;20051;-56
2021/12/31 12:01:35;;;;;;;13.68;6.65;;;;;;;;;;5147796;27;20103;-56
2021/12/31 12:04:20;;;;;;;11.70;5.95;;;;;;;;;;5147867;27;20043;-55
2021/12/31 12:06:52;;;;;;;14.52;7.03;;;;;;;;;;5147265;27;20059;-57
2021/12/31 12:09:18;;;;;;;14.13;5.60;;;;;;;;;;5147610;27;20135;-55
2021/12/31 12:12:03;;;;;;;11.82;6.10;;;;;;;;;;5147547;27;20051;-57
2021/12/31 12:14:29;;;;;;;13.23;6.10;;;;;;;;;;5147501;27;20114;-56
2021/12/31 12:16:59;;;;;;;8.65;5.50;;;;;;;;;;5128800;27;20049;-54
2021/12/31 12:19:43;;;;;;;11.05;6.15;;;;;;;;;;5147624;27;20392;-56
2021/12/31 12:22:09;;;;;;;10.40;5.88;;;;;;;;;;5146900;27;20107;-56
2021/12/31 12:24:36;;;;;;;9.77;5.82;;;;;;;;;;5147483;27;20058;-55
2021/12/31 12:27:02;;;;;;;10.85;5.68;;;;;;;;;;5146995;27;20084;-56
2021/12/31 12:29:29;;;;;;;8.13;5.20;;;;;;;;;;5147542;27;20099;-55
2021/12/31 12:32:11;;;;;;;11.07;5.20;;;;;;;;;;5146428;27;20050;-55
2021/12/31 12:34:37;;;;;;;7.70;4.30;;;;;;;;;;5146905;27;20069;-55
2021/12/31 12:37:04;;;;;;;7.00;4.65;;;;;;;;;;5146532;27;20043;-55
2021/12/31 12:39:32;;;;;;;10.07;5.63;;;;;;;;;;5147137;27;20043;-54
2021/12/31 12:41:59;;;;;;;6.60;5.00;;;;;;;;;;5146860;27;20039;-55
2021/12/31 12:44:25;;;;;;;8.85;4.97;;;;;;;;;;5146858;27;20059;-55
2021/12/31 12:46:52;;;;;;;8.18;3.78;;;;;;;;;;5146860;27;20042;-56
2021/12/31 12:49:18;;;;;;;7.63;4.95;;;;;;;;;;5147038;27;20039;-56
2021/12/31 12:51:46;;;;;;;8.63;5.68;;;;;;;;;;5145981;27;20058;-56
2021/12/31 12:54:13;;;;;;;;;;;;;;;;;;5147425;27;20044;-58
2021/12/31 12:56:39;;;;;;;9.00;5.28;;;;;;;;;;5146400;27;19919;-57
2021/12/31 12:59:06;;;;;;;7.03;5.03;;;;;;;;;;5146718;27;20043;-58
2021/12/31 13:01:33;;;;;;;8.73;5.97;;;;;;;;;;5146441;27;20111;-56
2021/12/31 13:03:59;;;;;;;7.10;4.18;;;;;;;;;;5146784;27;20050;-56
2021/12/31 13:06:26;;;;;;;10.00;4.63;;;;;;;;;;5146185;27;20051;-56
2021/12/31 13:09:03;;;;;;;11.90;6.30;;;;;;;;;;5146664;27;20035;-55
2021/12/31 13:11:30;;;;;;;10.50;5.72;;;;;;;;;;5145878;27;20098;-57
2021/12/31 13:13:57;;;;;;;9.32;5.15;;;;;;;;;;5146372;27;20111;-57
2021/12/31 13:16:23;;;;;;;10.32;5.30;;;;;;;;;;5146355;27;20051;-56
2021/12/31 13:19:03;;;;;;;9.40;6.10;;;;;;;;;;5146341;27;20085;-56
2021/12/31 13:21:29;;;;;;;11.43;5.43;;;;;;;;;;5145586;27;20045;-56
2021/12/31 13:23:56;;;;;;;8.23;5.53;;;;;;;;;;5146163;27;20120;-55
2021/12/31 13:26:23;;;;;;;9.25;4.80;;;;;;;;;;5145743;27;20039;-55
2021/12/31 13:28:50;;;;;;;9.35;4.45;;;;;;;;;;5146167;27;20108;-55
2021/12/31 13:31:17;;;;;;;8.23;4.78;;;;;;;;;;5145986;27;20470;-56
2021/12/31 13:33:48;;;;;;;12.38;4.32;;;;;;;;;;5146175;27;20100;-56
2021/12/31 13:36:25;;;;;;;13.40;5.10;;;;;;;;;;5145643;27;20089;-57
2021/12/31 13:39:06;;;;;;;10.70;3.97;;;;;;;;;;5145992;27;20035;-55
2021/12/31 13:41:36;;;;;;;8.38;3.55;;;;;;;;;;5145215;27;20293;-56
2021/12/31 13:44:05;;;;;;;8.40;4.47;;;;;;;;;;5145269;27;20047;-55
2021/12/31 13:46:40;;;;;;;13.10;4.75;;;;;;;;;;5145791;27;20039;-56
2021/12/31 13:49:14;;;;;;;11.10;4.63;;;;;;;;;;5145574;27;20055;-56
2021/12/31 13:51:41;;;;;;;10.57;5.25;;;;;;;;;;5145046;27;20042;-54
2021/12/31 13:54:08;;;;;;;12.53;6.00;;;;;;;;;;5145714;27;20367;-56
2021/12/31 13:56:39;;;;;;;10.48;4.60;;;;;;;;;;5145540;27;20356;-55
2021/12/31 13:59:24;;;;;;;16.48;5.30;;;;;;;;;;5145832;27;20047;-56
2021/12/31 14:02:07;;;;;;;13.93;4.97;;;;;;;;;;5145609;27;20039;-56
2021/12/31 14:04:34;;;;;;;15.40;5.18;;;;;;;;;;5145665;27;20051;-56
2021/12/31 14:07:16;;;;;;;16.48;5.45;;;;;;;;;;5145038;28;20124;-57
2021/12/31 14:09:43;;;;;;;22.17;6.47;;;;;;;;;;5145670;28;20140;-55
2021/12/31 14:12:09;;;;;;;16.92;6.63;;;;;;;;;;5145375;28;20047;-55
2021/12/31 14:14:36;;;;;;;24.40;6.40;;;;;;;;;;5145324;28;20123;-54
2021/12/31 14:17:03;;;;;;;25.70;7.47;;;;;;;;;;5126995;28;20047;-55
2021/12/31 14:19:32;;;;;;;31.80;8.63;;;;;;;;;;5145390;28;20065;-55
2021/12/31 14:22:00;;;;;;;26.30;7.30;;;;;;;;;;5126484;28;20062;-55
2021/12/31 14:24:26;;;;;;;22.73;6.82;;;;;;;;;;5145572;28;20158;-55
2021/12/31 14:26:54;;;;;;;24.75;8.65;;;;;;;;;;5145059;28;20047;-56
2021/12/31 14:29:20;;;;;;;25.55;11.05;;;;;;;;;;5145497;28;20046;-56
2021/12/31 14:31:46;;;;;;;21.92;7.93;;;;;;;;;;5145294;28;20078;-55
2021/12/31 14:34:14;;;;;;;23.10;7.55;;;;;;;;;;5145427;28;20126;-56
2021/12/31 14:36:53;;;;;;;27.48;8.98;;;;;;;;;;5144927;28;20054;-55
2021/12/31 14:39:21;;;;;;;24.55;8.35;;;;;;;;;;5145421;28;20076;-55
2021/12/31 14:41:47;;;;;;;36.88;12.32;;;;;;;;;;5145052;28;20047;-56
2021/12/31 14:44:14;;;;;;;27.77;9.27;;;;;;;;;;5127001;28;20455;-57